createdAt,value
2022-09-26T00:01:08.360Z,280.98
2022-09-26T00:03:36.133Z,254.85
2022-09-26T00:06:04.263Z,306.77
2022-09-26T00:08:31.235Z,304.80
2022-09-26T00:10:59.895Z,282.95
2022-09-26T00:13:27.950Z,306.92
2022-09-26T00:15:56.026Z,192.27
2022-09-26T00:18:24.041Z,201.27
2022-09-26T00:20:51.172Z,136.82
2022-09-26T00:23:18.227Z,123.30
2022-09-26T00:25:48.440Z,132.90
2022-09-26T00:28:15.479Z,248.30
2022-09-26T00:30:42.918Z,209.18
2022-09-26T00:33:09.743Z,105.47
2022-09-26T00:35:36.677Z,199.30
2022-09-26T00:38:03.977Z,281.55
2022-09-26T00:40:31.363Z,204.35
2022-09-26T00:42:59.063Z,183.37
2022-09-26T00:45:30.591Z,105.18
2022-09-26T00:48:03.873Z,145.55
2022-09-26T00:50:39.350Z,116.70
2022-09-26T00:53:10.452Z,149.27
2022-09-26T00:55:41.481Z,168.23
2022-09-26T00:58:14.856Z,120.80
2022-09-26T01:00:42.963Z,95.22
2022-09-26T01:03:09.856Z,102.45
2022-09-26T01:05:37.493Z,117.47
2022-09-26T01:08:04.796Z,96.82
2022-09-26T01:10:32.761Z,82.05
2022-09-26T01:13:00.722Z,66.95
2022-09-26T01:15:27.651Z,46.08
2022-09-26T01:17:54.538Z,49.67
2022-09-26T01:20:50.146Z,26.83
2022-09-26T01:23:37.974Z,23.08
2022-09-26T01:26:28.719Z,22.70
2022-09-26T01:29:29.512Z,37.65
2022-09-26T01:32:27.809Z,27.62
2022-09-26T01:35:32.287Z,48.67
2022-09-26T01:38:14.856Z,129.48
2022-09-26T01:40:44.498Z,188.73
2022-09-26T01:43:14.471Z,100.10
2022-09-26T01:45:53.445Z,171.98
2022-09-26T01:48:31.621Z,198.82
2022-09-26T01:51:04.522Z,127.68
2022-09-26T01:53:31.306Z,79.87
2022-09-26T01:56:04.356Z,49.60
2022-09-26T01:58:38.443Z,25.30
2022-09-26T02:01:10.751Z,21.73
2022-09-26T02:03:42.084Z,20.08
2022-09-26T02:06:12.409Z,20.50
2022-09-26T02:08:45.955Z,20.70
2022-09-26T02:11:17.473Z,19.80
2022-09-26T02:14:03.972Z,20.30
2022-09-26T02:16:40.908Z,18.95
2022-09-26T02:19:20.160Z,19.55
2022-09-26T02:21:47.333Z,19.10
2022-09-26T02:24:14.525Z,20.05
2022-09-26T02:26:42.510Z,22.13
2022-09-26T02:29:10.498Z,19.60
2022-09-26T02:31:41.940Z,20.30
2022-09-26T02:34:09.168Z,17.87
2022-09-26T02:36:36.794Z,19.48
2022-09-26T02:39:03.738Z,20.65
2022-09-26T02:42:17.567Z,20.23
2022-09-26T02:44:47.112Z,23.77
2022-09-26T02:47:20.000Z,23.10
2022-09-26T02:50:14.239Z,29.23
2022-09-26T02:53:08.811Z,97.28
2022-09-26T02:55:54.099Z,89.00
2022-09-26T02:58:45.901Z,106.03
2022-09-26T03:01:26.160Z,30.30
2022-09-26T03:04:18.596Z,22.25
2022-09-26T03:06:47.567Z,22.52
2022-09-26T03:09:15.427Z,22.27
2022-09-26T03:11:43.487Z,20.73
2022-09-26T03:14:11.210Z,21.00
2022-09-26T03:16:40.494Z,18.15
2022-09-26T03:19:14.923Z,16.70
2022-09-26T03:21:42.260Z,17.83
2022-09-26T03:24:09.959Z,16.75
2022-09-26T03:26:36.875Z,13.93
2022-09-26T03:29:03.916Z,15.27
2022-09-26T03:31:31.623Z,14.77
2022-09-26T03:33:58.601Z,16.52
2022-09-26T03:36:25.700Z,16.00
2022-09-26T03:38:52.585Z,21.77
2022-09-26T03:41:19.823Z,21.23
2022-09-26T03:43:46.738Z,19.25
2022-09-26T03:46:13.672Z,17.70
2022-09-26T03:48:40.609Z,16.73
2022-09-26T03:51:09.812Z,17.08
2022-09-26T03:53:39.013Z,16.58
2022-09-26T03:56:08.735Z,15.30
2022-09-26T03:58:35.753Z,16.98
2022-09-26T04:01:08.309Z,14.13
2022-09-26T04:03:36.734Z,14.52
2022-09-26T04:06:04.720Z,16.50
2022-09-26T04:08:32.031Z,15.05
2022-09-26T04:11:03.473Z,13.25
2022-09-26T04:13:50.702Z,13.95
2022-09-26T04:16:20.263Z,11.98
2022-09-26T04:18:48.039Z,12.40
2022-09-26T04:21:15.407Z,13.07
2022-09-26T04:23:43.877Z,12.45
2022-09-26T04:26:21.721Z,12.90
2022-09-26T04:28:51.189Z,13.45
2022-09-26T04:31:18.435Z,11.90
2022-09-26T04:33:45.411Z,19.50
2022-09-26T04:36:14.052Z,13.75
2022-09-26T04:38:41.240Z,16.58
2022-09-26T04:41:27.961Z,14.98
2022-09-26T04:43:55.744Z,14.32
2022-09-26T04:46:30.169Z,14.40
2022-09-26T04:48:59.559Z,15.00
2022-09-26T04:51:28.159Z,14.77
2022-09-26T04:53:55.383Z,17.02
2022-09-26T04:56:23.625Z,16.17
2022-09-26T04:58:50.859Z,15.93
2022-09-26T05:01:19.929Z,14.73
2022-09-26T05:03:46.883Z,13.60
2022-09-26T05:06:14.390Z,14.93
2022-09-26T05:08:42.732Z,14.45
2022-09-26T05:11:09.842Z,13.52
2022-09-26T05:13:38.996Z,13.52
2022-09-26T05:16:08.904Z,13.30
2022-09-26T05:18:36.680Z,12.75
2022-09-26T05:21:06.172Z,13.32
2022-09-26T05:23:52.104Z,12.82
2022-09-26T05:26:32.609Z,13.15
2022-09-26T05:29:08.360Z,14.77
2022-09-26T05:31:44.115Z,12.73
2022-09-26T05:34:18.398Z,11.68
2022-09-26T05:36:46.268Z,12.90
2022-09-26T05:39:31.450Z,16.30
2022-09-26T05:41:59.709Z,11.68
2022-09-26T05:44:27.575Z,12.65
2022-09-26T05:46:57.470Z,12.43
2022-09-26T05:49:25.283Z,12.30
2022-09-26T05:51:53.931Z,13.38
2022-09-26T05:54:20.855Z,12.18
2022-09-26T05:56:48.370Z,12.75
2022-09-26T05:59:15.527Z,13.27
2022-09-26T06:01:42.683Z,12.88
2022-09-26T06:04:10.465Z,12.65
2022-09-26T06:06:37.373Z,11.93
2022-09-26T06:09:04.302Z,11.77
2022-09-26T06:11:31.293Z,11.60
2022-09-26T06:14:00.873Z,13.57
2022-09-26T06:16:28.759Z,12.25
2022-09-26T06:18:58.919Z,13.10
2022-09-26T06:21:25.862Z,12.70
2022-09-26T06:24:41.235Z,12.15
2022-09-26T06:27:08.108Z,12.60
2022-09-26T06:29:35.061Z,12.60
2022-09-26T06:32:02.126Z,11.70
2022-09-26T06:34:29.037Z,11.55
2022-09-26T06:36:55.917Z,11.68
2022-09-26T06:39:23.085Z,11.68
2022-09-26T06:41:51.483Z,11.98
2022-09-26T06:44:18.595Z,12.48
2022-09-26T06:46:45.517Z,14.38
2022-09-26T06:49:12.678Z,15.57
2022-09-26T06:51:39.675Z,12.80
2022-09-26T06:54:06.682Z,14.02
2022-09-26T06:56:33.591Z,13.77
2022-09-26T06:59:00.416Z,13.75
2022-09-26T07:01:27.545Z,14.20
2022-09-26T07:03:54.649Z,15.85
2022-09-26T07:06:21.559Z,14.57
2022-09-26T07:09:02.306Z,14.38
2022-09-26T07:14:17.895Z,14.75
2022-09-26T07:16:45.227Z,14.60
2022-09-26T07:19:12.742Z,13.77
2022-09-26T07:21:39.836Z,15.07
2022-09-26T07:24:08.295Z,13.88
2022-09-26T07:26:35.562Z,15.93
2022-09-26T07:29:02.455Z,16.52
2022-09-26T07:31:29.617Z,16.25
2022-09-26T07:33:56.724Z,18.00
2022-09-26T07:36:23.659Z,15.85
2022-09-26T07:38:50.891Z,18.48
2022-09-26T07:41:18.001Z,15.65
2022-09-26T07:46:50.355Z,19.50
2022-09-26T07:49:36.043Z,16.87
2022-09-26T07:52:02.897Z,15.73
2022-09-26T07:54:29.794Z,16.02
2022-09-26T07:56:56.641Z,17.52
2022-09-26T07:59:23.623Z,14.52
2022-09-26T08:01:52.854Z,17.35
2022-09-26T08:04:24.065Z,14.25
2022-09-26T08:06:51.074Z,16.15
2022-09-26T08:09:17.945Z,15.27
2022-09-26T08:11:45.352Z,17.17
2022-09-26T08:14:12.283Z,15.35
2022-09-26T08:16:42.149Z,14.95
2022-09-26T08:19:10.922Z,16.20
2022-09-26T08:21:37.760Z,15.88
2022-09-26T08:24:04.848Z,15.40
2022-09-26T08:26:31.795Z,14.15
2022-09-26T08:29:00.093Z,16.05
2022-09-26T08:31:27.019Z,15.77
2022-09-26T08:33:54.188Z,16.37
2022-09-26T08:36:21.104Z,15.05
2022-09-26T08:38:50.180Z,16.80
2022-09-26T08:41:39.624Z,14.93
2022-09-26T08:44:46.793Z,12.95
2022-09-26T08:47:49.525Z,13.32
2022-09-26T08:50:23.970Z,15.02
2022-09-26T08:53:01.973Z,16.10
2022-09-26T08:55:37.556Z,16.05
2022-09-26T08:58:19.736Z,14.98
2022-09-26T09:00:49.058Z,15.05
2022-09-26T09:03:21.883Z,14.95
2022-09-26T09:05:51.296Z,12.20
2022-09-26T09:08:23.424Z,12.57
2022-09-26T09:11:13.445Z,12.63
2022-09-26T09:13:47.128Z,12.40
2022-09-26T09:16:35.688Z,11.12
2022-09-26T09:19:24.539Z,13.93
2022-09-26T09:22:32.712Z,11.52
2022-09-26T09:25:22.783Z,11.15
2022-09-26T09:28:15.925Z,12.27
2022-09-26T09:30:46.278Z,13.88
2022-09-26T09:33:28.704Z,10.75
2022-09-26T09:35:57.126Z,12.45
2022-09-26T09:38:28.504Z,11.95
2022-09-26T09:41:00.641Z,11.63
2022-09-26T09:43:32.549Z,10.70
2022-09-26T09:46:06.095Z,11.07
2022-09-26T09:48:33.496Z,10.75
2022-09-26T09:51:15.448Z,9.10
2022-09-26T09:54:07.424Z,8.95
2022-09-26T09:57:09.091Z,9.05
2022-09-26T09:59:59.498Z,8.45
2022-09-26T10:02:48.094Z,9.30
2022-09-26T10:05:25.708Z,9.43
2022-09-26T10:07:59.395Z,12.07
2022-09-26T10:10:40.546Z,10.30
2022-09-26T10:13:11.272Z,9.27
2022-09-26T10:15:54.639Z,8.90
2022-09-26T10:18:26.530Z,8.32
2022-09-26T10:21:02.744Z,8.30
2022-09-26T10:23:40.901Z,10.02
2022-09-26T10:26:11.045Z,9.07
2022-09-26T10:28:48.367Z,7.65
2022-09-26T10:31:41.362Z,7.85
2022-09-26T10:34:30.528Z,8.48
2022-09-26T10:36:57.826Z,8.15
2022-09-26T10:39:44.864Z,7.47
2022-09-26T10:42:20.335Z,8.77
2022-09-26T10:44:48.360Z,7.85
2022-09-26T10:47:22.431Z,8.80
2022-09-26T10:50:10.250Z,8.15
2022-09-26T10:52:40.234Z,8.40
2022-09-26T10:55:15.461Z,9.05
2022-09-26T10:58:08.985Z,7.37
2022-09-26T11:00:49.628Z,8.05
2022-09-26T11:03:21.051Z,7.97
2022-09-26T11:06:00.472Z,6.95
2022-09-26T11:08:32.525Z,8.85
2022-09-26T11:11:02.045Z,7.22
2022-09-26T11:13:32.427Z,8.32
2022-09-26T11:16:05.300Z,8.27
2022-09-26T11:18:50.222Z,7.43
2022-09-26T11:21:29.735Z,6.68
2022-09-26T11:24:04.084Z,9.20
2022-09-26T11:26:57.963Z,8.48
2022-09-26T11:29:48.396Z,7.87
2022-09-26T11:32:24.756Z,8.88
2022-09-26T11:34:54.489Z,7.32
2022-09-26T11:37:53.692Z,7.75
2022-09-26T11:40:50.222Z,10.05
2022-09-26T11:43:46.583Z,8.85
2022-09-26T11:47:02.655Z,8.27
2022-09-26T11:49:51.882Z,6.75
2022-09-26T11:52:21.780Z,6.80
2022-09-26T11:55:17.920Z,7.25
2022-09-26T11:57:50.810Z,8.63
2022-09-26T12:00:27.839Z,7.15
2022-09-26T12:03:22.546Z,7.82
2022-09-26T12:05:59.642Z,6.07
2022-09-26T12:08:37.699Z,6.50
2022-09-26T12:11:20.247Z,7.47
2022-09-26T12:13:55.580Z,6.65
2022-09-26T12:16:32.052Z,5.57
2022-09-26T12:19:32.201Z,6.75
2022-09-26T12:22:29.893Z,8.18
2022-09-26T12:25:37.316Z,8.13
2022-09-26T12:28:06.268Z,7.95
2022-09-26T12:31:19.286Z,8.27
2022-09-26T12:33:55.514Z,8.68
2022-09-26T12:36:55.413Z,7.87
2022-09-26T12:39:35.945Z,7.18
2022-09-26T12:42:08.697Z,8.32
2022-09-26T12:44:55.924Z,6.55
2022-09-26T12:47:47.928Z,7.03
2022-09-26T12:50:30.991Z,8.10
2022-09-26T12:53:19.499Z,8.70
2022-09-26T12:56:06.979Z,8.15
2022-09-26T12:59:12.452Z,5.90
2022-09-26T13:01:49.883Z,6.30
2022-09-26T13:04:25.095Z,6.32
2022-09-26T13:07:19.868Z,8.40
2022-09-26T13:10:10.964Z,8.65
2022-09-26T13:12:56.529Z,7.65
2022-09-26T13:15:37.413Z,7.82
2022-09-26T13:18:44.972Z,7.40
2022-09-26T13:21:16.762Z,7.53
2022-09-26T13:23:47.802Z,6.78
2022-09-26T13:26:45.382Z,6.85
2022-09-26T13:29:38.543Z,7.12
2022-09-26T13:32:23.294Z,8.50
2022-09-26T13:35:14.855Z,6.87
2022-09-26T13:37:57.856Z,8.20
2022-09-26T13:41:01.675Z,6.72
2022-09-26T13:43:44.547Z,7.15
2022-09-26T13:46:21.155Z,6.60
2022-09-26T13:49:25.285Z,7.32
2022-09-26T13:52:02.845Z,5.87
2022-09-26T13:54:54.318Z,5.97
2022-09-26T13:57:31.986Z,7.82
2022-09-26T13:59:59.180Z,7.72
2022-09-26T14:02:29.555Z,7.45
2022-09-26T14:04:59.290Z,6.93
2022-09-26T14:07:56.536Z,7.40
2022-09-26T14:10:32.495Z,7.37
2022-09-26T14:13:06.785Z,5.85
2022-09-26T14:15:48.812Z,8.07
2022-09-26T14:18:48.839Z,7.25
2022-09-26T14:21:33.795Z,6.82
2022-09-26T14:24:38.180Z,7.35
2022-09-26T14:27:11.282Z,8.55
2022-09-26T14:29:42.582Z,6.55
2022-09-26T14:32:10.556Z,6.18
2022-09-26T14:34:57.521Z,8.27
2022-09-26T14:37:24.458Z,7.30
2022-09-26T14:40:00.189Z,9.52
2022-09-26T14:42:32.010Z,7.25
2022-09-26T14:45:01.923Z,9.95
2022-09-26T14:47:37.457Z,7.43
2022-09-26T14:50:07.186Z,7.15
2022-09-26T14:52:34.647Z,10.13
2022-09-26T14:55:02.309Z,8.90
2022-09-26T14:57:31.903Z,8.27
2022-09-26T15:00:00.178Z,7.35
2022-09-26T15:02:38.488Z,8.90
2022-09-26T15:05:17.367Z,8.13
2022-09-26T15:07:49.827Z,9.02
2022-09-26T15:10:37.209Z,8.15
2022-09-26T15:13:14.970Z,7.97
2022-09-26T15:15:57.029Z,9.50
2022-09-26T15:18:27.030Z,10.15
2022-09-26T15:21:06.345Z,9.00
2022-09-26T15:23:35.159Z,8.02
2022-09-26T15:26:02.912Z,7.90
2022-09-26T15:28:34.357Z,8.93
2022-09-26T15:31:27.340Z,11.88
2022-09-26T15:34:02.431Z,10.70
2022-09-26T15:36:34.351Z,9.65
2022-09-26T15:39:02.246Z,9.90
2022-09-26T15:41:47.485Z,9.80
2022-09-26T15:44:23.644Z,9.30
2022-09-26T15:46:51.229Z,8.52
2022-09-26T15:49:23.060Z,9.38
2022-09-26T15:51:53.392Z,9.80
2022-09-26T15:54:28.061Z,9.27
2022-09-26T15:56:57.802Z,10.18
2022-09-26T15:59:38.608Z,8.50
2022-09-26T16:02:26.532Z,8.40
2022-09-26T16:04:54.997Z,8.93
2022-09-26T16:07:25.078Z,10.35
2022-09-26T16:09:52.107Z,10.95
2022-09-26T16:12:20.940Z,8.27
2022-09-26T16:14:50.783Z,9.32
2022-09-26T16:17:32.512Z,8.80
2022-09-26T16:20:03.956Z,9.00
2022-09-26T16:22:37.020Z,10.75
2022-09-26T16:25:19.137Z,9.77
2022-09-26T16:27:47.393Z,9.80
2022-09-26T16:30:30.144Z,9.82
2022-09-26T16:33:21.655Z,9.70
2022-09-26T16:35:48.842Z,11.10
2022-09-26T16:38:36.303Z,9.57
2022-09-26T16:43:37.761Z,10.43
2022-09-26T16:46:09.477Z,23.73
2022-09-26T16:48:41.258Z,45.22
2022-09-26T16:51:17.795Z,32.00
2022-09-26T16:53:48.929Z,35.03
2022-09-26T16:56:17.730Z,36.15
2022-09-26T16:59:17.453Z,39.50
2022-09-26T17:01:56.004Z,21.80
2022-09-26T17:04:31.496Z,24.15
2022-09-26T17:07:06.262Z,25.42
2022-09-26T17:09:34.640Z,26.35
2022-09-26T17:12:13.414Z,24.40
2022-09-26T17:14:41.619Z,30.37
2022-09-26T17:17:14.175Z,42.53
2022-09-26T17:19:41.854Z,55.85
2022-09-26T17:22:20.104Z,68.20
2022-09-26T17:24:51.928Z,96.90
2022-09-26T17:27:27.221Z,92.72
2022-09-26T17:29:58.983Z,75.62
2022-09-26T17:32:33.677Z,66.65
2022-09-26T17:35:03.989Z,52.62
2022-09-26T17:37:31.209Z,72.45
2022-09-26T17:39:58.161Z,63.05
2022-09-26T17:42:25.477Z,46.63
2022-09-26T17:44:52.394Z,25.33
2022-09-26T17:47:19.540Z,28.95
2022-09-26T17:49:57.460Z,30.62
2022-09-26T17:52:29.478Z,23.02
2022-09-26T17:54:58.989Z,36.00
2022-09-26T17:57:30.118Z,35.20
2022-09-26T17:59:58.028Z,32.75
2022-09-26T18:02:31.912Z,34.28
2022-09-26T18:05:03.454Z,32.00
2022-09-26T18:07:40.677Z,20.33
2022-09-26T18:10:17.174Z,13.95
2022-09-26T18:12:45.391Z,16.48
2022-09-26T18:15:16.491Z,11.25
2022-09-26T18:17:43.693Z,11.18
2022-09-26T18:20:10.870Z,12.93
2022-09-26T18:22:37.785Z,11.77
2022-09-26T18:25:07.479Z,11.73
2022-09-26T18:27:36.793Z,10.73
2022-09-26T18:30:04.748Z,11.25
2022-09-26T18:32:32.890Z,11.45
2022-09-26T18:35:00.266Z,11.55
2022-09-26T18:37:27.205Z,11.55
2022-09-26T18:39:56.347Z,12.60
2022-09-26T18:42:24.940Z,12.70
2022-09-26T18:45:05.351Z,10.60
2022-09-26T18:47:42.678Z,13.05
2022-09-26T18:52:46.696Z,13.15
2022-09-26T18:55:38.720Z,11.88
2022-09-26T18:58:23.938Z,15.65
2022-09-26T19:00:56.751Z,18.80
2022-09-26T19:03:25.380Z,17.35
2022-09-26T19:05:53.514Z,13.27
2022-09-26T19:08:33.062Z,12.60
2022-09-26T19:11:12.973Z,11.63
2022-09-26T19:13:41.138Z,11.82
2022-09-26T19:16:08.762Z,12.93
2022-09-26T19:18:36.023Z,15.60
2022-09-26T19:21:05.362Z,20.20
2022-09-26T19:23:35.622Z,35.10
2022-09-26T19:26:04.492Z,52.13
2022-09-26T19:28:34.821Z,38.70
2022-09-26T19:31:03.240Z,35.22
2022-09-26T19:33:30.371Z,42.58
2022-09-26T19:35:57.271Z,48.58
2022-09-26T19:38:26.351Z,44.67
2022-09-26T19:40:54.045Z,45.05
2022-09-26T19:43:21.720Z,31.42
2022-09-26T19:45:51.556Z,30.27
2022-09-26T19:48:20.365Z,17.83
2022-09-26T19:50:48.568Z,20.25
2022-09-26T19:53:20.389Z,20.83
2022-09-26T19:55:50.373Z,20.58
2022-09-26T19:58:22.506Z,18.85
2022-09-26T20:00:51.792Z,17.27
2022-09-26T20:03:21.182Z,13.05
2022-09-26T20:05:49.562Z,11.75
2022-09-26T20:08:19.669Z,12.10
2022-09-26T20:10:46.691Z,10.70
2022-09-26T20:13:13.639Z,10.27
2022-09-26T20:15:40.614Z,11.85
2022-09-26T20:18:08.502Z,9.23
2022-09-26T20:20:36.235Z,10.90
2022-09-26T20:23:03.157Z,9.50
2022-09-26T20:25:32.068Z,9.07
2022-09-26T20:28:00.721Z,11.18
2022-09-26T20:30:46.528Z,11.52
2022-09-26T20:33:13.563Z,10.13
2022-09-26T20:35:45.640Z,11.38
2022-09-26T20:38:18.531Z,9.93
2022-09-26T20:40:46.391Z,10.55
2022-09-26T20:43:16.820Z,9.55
2022-09-26T20:45:45.069Z,11.32
2022-09-26T20:48:20.557Z,10.65
2022-09-26T20:50:48.628Z,10.13
2022-09-26T20:53:25.152Z,13.60
2022-09-26T20:55:53.694Z,9.32
2022-09-26T20:58:20.605Z,10.93
2022-09-26T21:00:47.887Z,11.05
2022-09-26T21:03:17.371Z,12.02
2022-09-26T21:05:44.584Z,10.00
2022-09-26T21:08:27.561Z,11.50
2022-09-26T21:10:56.285Z,11.43
2022-09-26T21:13:23.746Z,10.88
2022-09-26T21:15:51.814Z,11.30
2022-09-26T21:18:24.335Z,11.12
2022-09-26T21:20:52.330Z,12.18
2022-09-26T21:23:20.294Z,10.95
2022-09-26T21:25:47.371Z,10.90
2022-09-26T21:28:27.204Z,13.30
2022-09-26T21:30:58.952Z,12.57
2022-09-26T21:33:26.189Z,12.00
2022-09-26T21:35:53.214Z,12.05
2022-09-26T21:38:21.632Z,12.07
2022-09-26T21:40:52.967Z,12.30
2022-09-26T21:43:22.331Z,12.40
2022-09-26T21:45:49.292Z,11.30
2022-09-26T21:48:16.847Z,12.13
2022-09-26T21:51:03.997Z,11.55
2022-09-26T21:53:37.652Z,11.60
2022-09-26T21:56:11.369Z,11.80
2022-09-26T21:58:40.219Z,13.02
2022-09-26T22:01:07.593Z,10.88
2022-09-26T22:03:34.778Z,12.40
2022-09-26T22:06:07.204Z,12.30
2022-09-26T22:08:34.696Z,12.88
2022-09-26T22:11:03.390Z,12.18
2022-09-26T22:13:30.690Z,11.10
2022-09-26T22:16:07.129Z,11.25
2022-09-26T22:18:34.893Z,16.55
2022-09-26T22:21:03.987Z,12.75
2022-09-26T22:23:32.364Z,13.73
2022-09-26T22:25:59.369Z,12.43
2022-09-26T22:28:26.549Z,13.10
2022-09-26T22:30:54.849Z,12.80
2022-09-26T22:33:23.014Z,13.45
2022-09-26T22:35:51.053Z,12.57
2022-09-26T22:38:21.099Z,12.88
2022-09-26T22:41:01.986Z,11.98
2022-09-26T22:43:29.623Z,12.55
2022-09-26T22:46:12.642Z,14.55
2022-09-26T22:48:42.612Z,12.40
2022-09-26T22:51:10.048Z,13.68
2022-09-26T22:53:38.561Z,14.35
2022-09-26T22:56:06.911Z,12.43
2022-09-26T22:58:38.327Z,14.13
2022-09-26T23:01:07.889Z,13.40
2022-09-26T23:03:35.368Z,12.05
2022-09-26T23:06:03.118Z,12.45
2022-09-26T23:08:30.444Z,11.55
2022-09-26T23:10:57.800Z,12.05
2022-09-26T23:13:28.319Z,12.55
2022-09-26T23:15:55.597Z,12.65
2022-09-26T23:18:22.501Z,12.70
2022-09-26T23:20:49.463Z,11.57
2022-09-26T23:23:16.407Z,10.80
2022-09-26T23:25:47.892Z,11.88
2022-09-26T23:28:15.482Z,11.70
2022-09-26T23:30:42.767Z,14.48
2022-09-26T23:33:10.302Z,11.80
2022-09-26T23:35:37.380Z,11.65
2022-09-26T23:38:05.479Z,11.98
2022-09-26T23:40:33.038Z,14.75
2022-09-26T23:43:00.138Z,12.02
2022-09-26T23:45:27.300Z,12.85
2022-09-26T23:47:54.262Z,13.13
2022-09-26T23:50:21.572Z,11.60
2022-09-26T23:52:48.561Z,12.77
2022-09-26T23:55:15.825Z,11.18
2022-09-26T23:57:42.738Z,12.20
